EST,Max TemperatureF,Mean TemperatureF,Min TemperatureF,Max Dew PointF,MeanDew PointF,Min DewpointF,Max Humidity, Mean Humidity, Min Humidity, Max Sea Level PressureIn, Mean Sea Level PressureIn, Min Sea Level PressureIn, Max VisibilityMiles, Mean VisibilityMiles, Min VisibilityMiles, Max Wind SpeedMPH, Mean Wind SpeedMPH, Max Gust SpeedMPH,PrecipitationIn, CloudCover, Events, WindDirDegrees
2012-11-1,41,38,35,37,36,34,93,90,81,29.77,29.69,29.63,10,9,3,16,11,23,0.12,8,,248
2012-11-2,39,37,35,34,32,28,93,81,70,29.99,29.84,29.73,10,10,10,14,6,23,0.00,8,,265
2012-11-3,42,38,35,36,31,28,93,78,70,30.12,30.07,29.99,10,10,7,12,7,21,0.01,7,,287
2012-11-4,37,35,33,32,27,25,87,69,60,30.12,30.11,30.09,10,10,10,8,3,,0.00,8,,314
2012-11-5,39,36,33,30,25,21,81,67,52,30.18,30.13,30.08,10,10,10,9,2,,0.00,8,,321
2012-11-6,44,35,26,27,22,19,74,61,46,30.16,30.05,29.97,10,10,10,12,6,,0.00,1,,76
2012-11-7,39,32,26,25,20,18,80,61,42,30.04,29.98,29.94,10,10,9,13,7,,0.00,0,,36
2012-11-8,44,32,21,28,23,16,86,69,49,30.17,30.12,30.04,10,10,8,13,3,17,0.00,1,,291
2012-11-9,51,38,26,34,29,23,93,71,50,30.26,30.20,30.15,10,8,2,12,2,,0.00,1,,215
2012-11-10,64,50,37,39,36,30,93,61,37,30.29,30.24,30.18,10,9,3,13,4,17,0.05,4,,157
2012-11-11,68,55,42,37,35,32,66,41,30,30.38,30.28,30.23,10,10,10,10,6,17,0.00,0,,162
2012-11-12,68,52,37,48,41,34,93,61,41,30.32,30.17,29.98,10,9,4,22,10,31,0.31,3,,191
2012-11-13,37,34,30,30,23,19,80,64,52,30.53,30.43,30.32,10,10,10,13,7,21,0.13,7,,277
2012-11-14,37,30,24,27,22,19,86,66,52,30.56,30.49,30.39,10,10,10,10,4,,0.00,4,,60
2012-11-15,46,34,23,27,23,19,86,66,43,30.37,30.33,30.29,10,10,10,8,4,,0.00,0,,60
2012-11-16,48,37,26,32,26,23,93,68,43,30.49,30.40,30.32,10,10,6,9,2,,0.00,0,,1
2012-11-17,51,38,24,30,26,21,93,68,41,30.61,30.55,30.50,10,10,6,9,4,,0.00,0,,54
2012-11-18,53,42,30,30,27,25,80,60,38,30.56,30.51,30.46,10,10,10,10,8,,0.00,0,,85
2012-11-19,50,37,24,34,29,21,93,73,47,30.45,30.35,30.21,10,9,2,7,4,,0.00,0,,68
2012-11-20,51,40,30,34,30,28,93,71,44,30.20,30.15,30.10,10,10,5,7,1,,0.00,1,,47
2012-11-21,55,42,28,34,28,23,93,65,31,30.25,30.21,30.15,10,8,2,6,1,,0.00,1,,28
2012-11-22,57,40,24,34,27,21,93,58,36,30.25,30.18,30.05,10,10,8,9,3,,0.00,0,,151
2012-11-23,53,42,30,43,30,19,87,60,30,30.04,29.90,29.76,10,10,8,23,10,36,0.00,5,,221
2012-11-24,30,29,28,25,22,18,86,74,64,30.06,30.01,29.95,10,8,2,17,12,26,0.00,8,,260
2012-11-25,37,30,24,21,19,18,86,63,48,30.03,29.96,29.85,10,9,1,17,9,22,0.00,5,,231
2012-11-26,42,34,26,27,23,19,80,64,49,30.22,30.13,29.98,10,10,7,9,4,,0.00,2,,257
2012-11-27,35,32,30,28,25,19,93,75,56,30.29,30.25,30.20,10,8,1,8,3,,0.00,7,,332
2012-11-28,39,34,28,21,19,14,69,60,36,30.34,30.29,30.24,10,10,10,14,6,22,0.00,4,,248
2012-11-29,42,33,24,25,20,18,80,61,39,30.39,30.32,30.27,10,10,7,12,5,17,0.00,0,,212
2012-11-30,51,38,26,30,25,19,86,61,38,30.30,30.25,30.19,10,10,9,10,2,,0.00,3,,165